Search for airport 
image banner adimage banner adimage banner ad
image banner ad

CDA4 - Pokemouche

Located in Pokemouche, Canada

ICAO - CDA4, IATA -

Data provided by Airmate  

General information

Coordinates: N47°42'59" W64°52'57"
Elevation is 68 feet MSL.
Magnetic variation is -18.3333° East
View others Airports in New Brunswick

Operational data

Special qualification required
Current time UTC:
Current local time:
Weather at : CZBF - Bathurst ( 65 km )
METAR: CZBF 191200Z AUTO 26012G17KT 9SM FEW035 OVC047 07/04 A2947 RMK SLP984
TAF: TAF CZBF 190839Z 1909/1921 25008KT P6SM BKN030 TEMPO 1909/1915 BKN020 FM191500 26010G20KT P6SM BKN030 TEMPO 1915/1921 P6SM -SHRA BKN020 RMK FCST BASED ON AUTO OBS. NXT FCST BY 191400Z
View NOTAMs / SUP AIP / TFR affecting this airport [VIEW]
Communications frequencies: [VIEW]

Runways:

RWY identifierQFULength (ft)Width (ft)SurfaceLDA (ft)
13105°298575ASPH2985
31285°298575ASPH2985
1200UNK
3000UNK

Airport contact information

Address: Pokemouche Canada

Satellite view of CDA4